sensor_id;sensor_type;location;lat;lon;timestamp;P1;durP1;ratioP1;P2;durP2;ratioP2
39620;SDS011;25309;48.686;9.170;2023-02-18T00:02:19;1.67;;;0.80;;
39620;SDS011;25309;48.686;9.170;2023-02-18T00:04:48;1.47;;;0.80;;
39620;SDS011;25309;48.686;9.170;2023-02-18T00:07:14;1.07;;;0.90;;
39620;SDS011;25309;48.686;9.170;2023-02-18T00:09:41;0.83;;;0.83;;
39620;SDS011;25309;48.686;9.170;2023-02-18T00:12:08;1.00;;;0.90;;
39620;SDS011;25309;48.686;9.170;2023-02-18T00:14:35;1.20;;;1.10;;
39620;SDS011;25309;48.686;9.170;2023-02-18T00:17:03;1.07;;;0.90;;
39620;SDS011;25309;48.686;9.170;2023-02-18T00:19:30;0.97;;;0.87;;
39620;SDS011;25309;48.686;9.170;2023-02-18T00:21:58;1.13;;;0.80;;
39620;SDS011;25309;48.686;9.170;2023-02-18T00:24:25;0.93;;;0.70;;
39620;SDS011;25309;48.686;9.170;2023-02-18T00:26:52;1.10;;;0.93;;
39620;SDS011;25309;48.686;9.170;2023-02-18T00:29:19;1.20;;;0.80;;
39620;SDS011;25309;48.686;9.170;2023-02-18T00:31:46;1.03;;;0.90;;
39620;SDS011;25309;48.686;9.170;2023-02-18T00:34:13;1.93;;;0.90;;
39620;SDS011;25309;48.686;9.170;2023-02-18T00:36:40;1.23;;;0.90;;
39620;SDS011;25309;48.686;9.170;2023-02-18T00:39:09;0.90;;;0.83;;
39620;SDS011;25309;48.686;9.170;2023-02-18T00:41:37;0.90;;;0.80;;
39620;SDS011;25309;48.686;9.170;2023-02-18T00:44:05;1.20;;;1.00;;
39620;SDS011;25309;48.686;9.170;2023-02-18T00:46:32;0.93;;;0.83;;
39620;SDS011;25309;48.686;9.170;2023-02-18T00:49:00;0.70;;;0.70;;
39620;SDS011;25309;48.686;9.170;2023-02-18T00:51:28;1.37;;;0.90;;
39620;SDS011;25309;48.686;9.170;2023-02-18T00:53:56;1.00;;;0.87;;
39620;SDS011;25309;48.686;9.170;2023-02-18T00:56:24;1.50;;;0.93;;
39620;SDS011;25309;48.686;9.170;2023-02-18T00:58:51;1.37;;;0.87;;
39620;SDS011;25309;48.686;9.170;2023-02-18T01:01:18;0.70;;;0.70;;
39620;SDS011;25309;48.686;9.170;2023-02-18T01:03:45;0.60;;;0.60;;
39620;SDS011;25309;48.686;9.170;2023-02-18T01:06:13;0.87;;;0.70;;
39620;SDS011;25309;48.686;9.170;2023-02-18T01:08:40;1.93;;;0.90;;
39620;SDS011;25309;48.686;9.170;2023-02-18T01:11:08;1.13;;;0.87;;
39620;SDS011;25309;48.686;9.170;2023-02-18T01:13:38;1.53;;;1.07;;
39620;SDS011;25309;48.686;9.170;2023-02-18T01:16:05;0.70;;;0.70;;
39620;SDS011;25309;48.686;9.170;2023-02-18T01:18:34;0.90;;;0.83;;
39620;SDS011;25309;48.686;9.170;2023-02-18T01:21:03;0.83;;;0.80;;
39620;SDS011;25309;48.686;9.170;2023-02-18T01:23:34;0.97;;;0.83;;
39620;SDS011;25309;48.686;9.170;2023-02-18T01:26:01;1.00;;;0.90;;
39620;SDS011;25309;48.686;9.170;2023-02-18T01:28:28;0.70;;;0.70;;
39620;SDS011;25309;48.686;9.170;2023-02-18T01:30:56;1.17;;;0.97;;
39620;SDS011;25309;48.686;9.170;2023-02-18T01:33:24;1.33;;;1.10;;
39620;SDS011;25309;48.686;9.170;2023-02-18T01:35:51;1.20;;;1.00;;
39620;SDS011;25309;48.686;9.170;2023-02-18T01:38:22;1.07;;;1.00;;
39620;SDS011;25309;48.686;9.170;2023-02-18T01:40:49;1.00;;;0.90;;
39620;SDS011;25309;48.686;9.170;2023-02-18T01:43:19;0.80;;;0.80;;
39620;SDS011;25309;48.686;9.170;2023-02-18T01:45:49;1.73;;;1.10;;
39620;SDS011;25309;48.686;9.170;2023-02-18T01:48:22;1.00;;;0.90;;
39620;SDS011;25309;48.686;9.170;2023-02-18T01:50:52;1.07;;;0.90;;
39620;SDS011;25309;48.686;9.170;2023-02-18T01:53:25;1.47;;;1.00;;
39620;SDS011;25309;48.686;9.170;2023-02-18T01:55:54;0.90;;;0.80;;
39620;SDS011;25309;48.686;9.170;2023-02-18T01:58:23;1.00;;;0.90;;
39620;SDS011;25309;48.686;9.170;2023-02-18T02:00:50;1.43;;;1.00;;
39620;SDS011;25309;48.686;9.170;2023-02-18T02:03:17;0.83;;;0.83;;
39620;SDS011;25309;48.686;9.170;2023-02-18T02:05:47;1.63;;;1.07;;
39620;SDS011;25309;48.686;9.170;2023-02-18T02:08:14;1.47;;;1.00;;
39620;SDS011;25309;48.686;9.170;2023-02-18T02:10:45;1.20;;;1.10;;
39620;SDS011;25309;48.686;9.170;2023-02-18T02:13:28;3.00;;;1.00;;
39620;SDS011;25309;48.686;9.170;2023-02-18T02:16:10;0.90;;;0.90;;
39620;SDS011;25309;48.686;9.170;2023-02-18T02:18:47;1.33;;;1.00;;
39620;SDS011;25309;48.686;9.170;2023-02-18T02:24:37;1.63;;;1.30;;
39620;SDS011;25309;48.686;9.170;2023-02-18T02:27:20;1.10;;;0.93;;
39620;SDS011;25309;48.686;9.170;2023-02-18T02:32:55;1.83;;;1.23;;
39620;SDS011;25309;48.686;9.170;2023-02-18T02:35:50;1.47;;;1.30;;
39620;SDS011;25309;48.686;9.170;2023-02-18T02:38:23;1.03;;;0.93;;
39620;SDS011;25309;48.686;9.170;2023-02-18T02:41:00;1.83;;;1.20;;
39620;SDS011;25309;48.686;9.170;2023-02-18T02:43:33;1.83;;;1.27;;
39620;SDS011;25309;48.686;9.170;2023-02-18T02:46:10;0.80;;;0.80;;
39620;SDS011;25309;48.686;9.170;2023-02-18T02:48:44;1.67;;;1.17;;
39620;SDS011;25309;48.686;9.170;2023-02-18T02:51:18;1.67;;;1.20;;
39620;SDS011;25309;48.686;9.170;2023-02-18T02:53:50;1.33;;;1.10;;
39620;SDS011;25309;48.686;9.170;2023-02-18T02:56:17;1.50;;;1.40;;
39620;SDS011;25309;48.686;9.170;2023-02-18T02:58:51;2.80;;;1.20;;
39620;SDS011;25309;48.686;9.170;2023-02-18T03:01:29;1.70;;;1.03;;
39620;SDS011;25309;48.686;9.170;2023-02-18T03:04:20;1.47;;;1.17;;
39620;SDS011;25309;48.686;9.170;2023-02-18T03:07:25;2.20;;;1.40;;
39620;SDS011;25309;48.686;9.170;2023-02-18T03:10:16;2.07;;;1.40;;
39620;SDS011;25309;48.686;9.170;2023-02-18T03:12:59;1.70;;;1.30;;
39620;SDS011;25309;48.686;9.170;2023-02-18T03:15:39;1.77;;;1.30;;
39620;SDS011;25309;48.686;9.170;2023-02-18T03:18:17;1.17;;;1.07;;
39620;SDS011;25309;48.686;9.170;2023-02-18T03:20:54;1.20;;;1.10;;
39620;SDS011;25309;48.686;9.170;2023-02-18T03:23:26;1.80;;;1.10;;
39620;SDS011;25309;48.686;9.170;2023-02-18T03:25:57;1.93;;;1.40;;
39620;SDS011;25309;48.686;9.170;2023-02-18T03:28:26;2.27;;;1.20;;
39620;SDS011;25309;48.686;9.170;2023-02-18T03:31:01;1.57;;;1.30;;
39620;SDS011;25309;48.686;9.170;2023-02-18T03:33:32;2.00;;;1.13;;
39620;SDS011;25309;48.686;9.170;2023-02-18T03:36:03;1.30;;;1.20;;
39620;SDS011;25309;48.686;9.170;2023-02-18T03:38:32;1.27;;;1.07;;
39620;SDS011;25309;48.686;9.170;2023-02-18T03:41:03;1.70;;;1.30;;
39620;SDS011;25309;48.686;9.170;2023-02-18T03:43:31;2.30;;;1.30;;
39620;SDS011;25309;48.686;9.170;2023-02-18T03:45:59;2.13;;;1.30;;
39620;SDS011;25309;48.686;9.170;2023-02-18T03:48:26;1.40;;;1.10;;
39620;SDS011;25309;48.686;9.170;2023-02-18T03:50:53;1.37;;;1.00;;
39620;SDS011;25309;48.686;9.170;2023-02-18T03:53:20;1.40;;;1.23;;
39620;SDS011;25309;48.686;9.170;2023-02-18T03:55:48;1.40;;;1.20;;
39620;SDS011;25309;48.686;9.170;2023-02-18T03:58:15;2.20;;;1.20;;
39620;SDS011;25309;48.686;9.170;2023-02-18T04:00:42;1.37;;;1.27;;
39620;SDS011;25309;48.686;9.170;2023-02-18T04:03:09;1.10;;;0.93;;
39620;SDS011;25309;48.686;9.170;2023-02-18T04:05:36;1.07;;;0.93;;
39620;SDS011;25309;48.686;9.170;2023-02-18T04:08:03;1.20;;;1.10;;
39620;SDS011;25309;48.686;9.170;2023-02-18T04:10:30;1.33;;;1.10;;
39620;SDS011;25309;48.686;9.170;2023-02-18T04:12:59;1.63;;;1.20;;
39620;SDS011;25309;48.686;9.170;2023-02-18T04:15:26;1.23;;;1.10;;
39620;SDS011;25309;48.686;9.170;2023-02-18T04:17:53;1.27;;;1.00;;
39620;SDS011;25309;48.686;9.170;2023-02-18T04:20:20;1.07;;;1.00;;
39620;SDS011;25309;48.686;9.170;2023-02-18T04:22:47;1.20;;;1.10;;
39620;SDS011;25309;48.686;9.170;2023-02-18T04:25:14;1.20;;;0.93;;
39620;SDS011;25309;48.686;9.170;2023-02-18T04:27:41;1.43;;;1.10;;
39620;SDS011;25309;48.686;9.170;2023-02-18T04:30:10;1.33;;;1.10;;
39620;SDS011;25309;48.686;9.170;2023-02-18T04:32:37;1.53;;;1.20;;
39620;SDS011;25309;48.686;9.170;2023-02-18T04:35:05;1.43;;;1.00;;
39620;SDS011;25309;48.686;9.170;2023-02-18T04:37:32;1.97;;;1.20;;
39620;SDS011;25309;48.686;9.170;2023-02-18T04:39:59;1.50;;;1.00;;
39620;SDS011;25309;48.686;9.170;2023-02-18T04:42:26;1.03;;;0.90;;
39620;SDS011;25309;48.686;9.170;2023-02-18T04:44:53;1.20;;;0.90;;
39620;SDS011;25309;48.686;9.170;2023-02-18T04:47:21;1.20;;;0.97;;
39620;SDS011;25309;48.686;9.170;2023-02-18T04:49:48;1.43;;;1.10;;
39620;SDS011;25309;48.686;9.170;2023-02-18T04:52:15;1.37;;;1.13;;
39620;SDS011;25309;48.686;9.170;2023-02-18T04:54:42;1.53;;;1.10;;
39620;SDS011;25309;48.686;9.170;2023-02-18T04:57:09;1.20;;;1.07;;
39620;SDS011;25309;48.686;9.170;2023-02-18T04:59:36;1.20;;;1.00;;
39620;SDS011;25309;48.686;9.170;2023-02-18T05:02:03;1.33;;;0.90;;
39620;SDS011;25309;48.686;9.170;2023-02-18T05:04:32;1.47;;;1.10;;
39620;SDS011;25309;48.686;9.170;2023-02-18T05:06:59;1.30;;;1.20;;
39620;SDS011;25309;48.686;9.170;2023-02-18T05:09:26;1.37;;;1.10;;
39620;SDS011;25309;48.686;9.170;2023-02-18T05:11:53;2.40;;;1.20;;
39620;SDS011;25309;48.686;9.170;2023-02-18T05:14:20;1.40;;;1.20;;
39620;SDS011;25309;48.686;9.170;2023-02-18T05:16:47;1.40;;;1.20;;
39620;SDS011;25309;48.686;9.170;2023-02-18T05:19:14;1.10;;;1.00;;
39620;SDS011;25309;48.686;9.170;2023-02-18T05:21:43;1.90;;;1.10;;
39620;SDS011;25309;48.686;9.170;2023-02-18T05:24:10;1.00;;;0.90;;
39620;SDS011;25309;48.686;9.170;2023-02-18T05:26:37;1.60;;;0.93;;
39620;SDS011;25309;48.686;9.170;2023-02-18T05:29:04;2.03;;;1.30;;
39620;SDS011;25309;48.686;9.170;2023-02-18T05:31:31;1.53;;;1.27;;
39620;SDS011;25309;48.686;9.170;2023-02-18T05:33:58;2.47;;;1.30;;
39620;SDS011;25309;48.686;9.170;2023-02-18T05:36:25;2.63;;;1.03;;
39620;SDS011;25309;48.686;9.170;2023-02-18T05:38:53;1.47;;;1.10;;
39620;SDS011;25309;48.686;9.170;2023-02-18T05:41:20;1.93;;;1.10;;
39620;SDS011;25309;48.686;9.170;2023-02-18T05:43:47;1.20;;;1.10;;
39620;SDS011;25309;48.686;9.170;2023-02-18T05:46:33;2.10;;;1.10;;
39620;SDS011;25309;48.686;9.170;2023-02-18T05:49:00;2.03;;;1.27;;
39620;SDS011;25309;48.686;9.170;2023-02-18T05:51:27;1.60;;;1.00;;
39620;SDS011;25309;48.686;9.170;2023-02-18T05:53:55;1.70;;;0.87;;
39620;SDS011;25309;48.686;9.170;2023-02-18T05:56:22;1.97;;;1.17;;
39620;SDS011;25309;48.686;9.170;2023-02-18T05:58:49;2.20;;;1.13;;
39620;SDS011;25309;48.686;9.170;2023-02-18T06:01:16;1.27;;;1.00;;
39620;SDS011;25309;48.686;9.170;2023-02-18T06:03:43;1.30;;;1.10;;
39620;SDS011;25309;48.686;9.170;2023-02-18T06:06:10;1.30;;;1.00;;
39620;SDS011;25309;48.686;9.170;2023-02-18T06:08:37;1.20;;;1.00;;
39620;SDS011;25309;48.686;9.170;2023-02-18T06:11:05;1.47;;;1.00;;
39620;SDS011;25309;48.686;9.170;2023-02-18T06:13:32;2.30;;;1.00;;
39620;SDS011;25309;48.686;9.170;2023-02-18T06:15:59;2.97;;;1.20;;
39620;SDS011;25309;48.686;9.170;2023-02-18T06:18:26;1.97;;;1.10;;
39620;SDS011;25309;48.686;9.170;2023-02-18T06:20:53;1.97;;;1.17;;
39620;SDS011;25309;48.686;9.170;2023-02-18T06:23:20;1.17;;;1.07;;
39620;SDS011;25309;48.686;9.170;2023-02-18T06:25:47;1.20;;;1.10;;
39620;SDS011;25309;48.686;9.170;2023-02-18T06:28:16;1.20;;;1.10;;
39620;SDS011;25309;48.686;9.170;2023-02-18T06:30:44;1.97;;;1.27;;
39620;SDS011;25309;48.686;9.170;2023-02-18T06:33:11;1.37;;;1.00;;
39620;SDS011;25309;48.686;9.170;2023-02-18T06:35:38;2.70;;;1.50;;
39620;SDS011;25309;48.686;9.170;2023-02-18T06:38:05;2.20;;;1.20;;
39620;SDS011;25309;48.686;9.170;2023-02-18T06:40:32;2.07;;;1.30;;
39620;SDS011;25309;48.686;9.170;2023-02-18T06:42:59;0.83;;;0.80;;
39620;SDS011;25309;48.686;9.170;2023-02-18T06:45:27;2.20;;;1.30;;
39620;SDS011;25309;48.686;9.170;2023-02-18T06:47:54;1.83;;;1.20;;
39620;SDS011;25309;48.686;9.170;2023-02-18T06:50:21;1.87;;;1.10;;
39620;SDS011;25309;48.686;9.170;2023-02-18T06:52:48;2.07;;;1.20;;
39620;SDS011;25309;48.686;9.170;2023-02-18T06:55:15;1.27;;;1.10;;
39620;SDS011;25309;48.686;9.170;2023-02-18T06:57:42;1.20;;;1.10;;
39620;SDS011;25309;48.686;9.170;2023-02-18T07:00:09;1.20;;;1.10;;
39620;SDS011;25309;48.686;9.170;2023-02-18T07:02:38;1.40;;;1.20;;
39620;SDS011;25309;48.686;9.170;2023-02-18T07:05:05;1.70;;;1.23;;
39620;SDS011;25309;48.686;9.170;2023-02-18T07:07:32;1.50;;;1.10;;
39620;SDS011;25309;48.686;9.170;2023-02-18T07:09:59;2.40;;;1.30;;
39620;SDS011;25309;48.686;9.170;2023-02-18T07:12:26;1.70;;;1.20;;
39620;SDS011;25309;48.686;9.170;2023-02-18T07:14:53;1.63;;;1.30;;
39620;SDS011;25309;48.686;9.170;2023-02-18T07:17:20;1.80;;;1.20;;
39620;SDS011;25309;48.686;9.170;2023-02-18T07:19:48;1.30;;;1.20;;
39620;SDS011;25309;48.686;9.170;2023-02-18T07:22:15;1.50;;;1.20;;
39620;SDS011;25309;48.686;9.170;2023-02-18T07:24:43;1.40;;;1.20;;
39620;SDS011;25309;48.686;9.170;2023-02-18T07:27:09;1.70;;;1.30;;
39620;SDS011;25309;48.686;9.170;2023-02-18T07:29:36;1.27;;;1.07;;
39620;SDS011;25309;48.686;9.170;2023-02-18T07:32:03;1.77;;;1.30;;
39620;SDS011;25309;48.686;9.170;2023-02-18T07:34:30;1.30;;;1.20;;
39620;SDS011;25309;48.686;9.170;2023-02-18T07:36:59;2.80;;;1.40;;
39620;SDS011;25309;48.686;9.170;2023-02-18T07:39:25;1.73;;;1.30;;
39620;SDS011;25309;48.686;9.170;2023-02-18T07:41:52;1.57;;;1.40;;
39620;SDS011;25309;48.686;9.170;2023-02-18T07:44:22;1.50;;;1.40;;
39620;SDS011;25309;48.686;9.170;2023-02-18T07:46:49;2.27;;;1.40;;
39620;SDS011;25309;48.686;9.170;2023-02-18T07:49:16;2.83;;;1.57;;
39620;SDS011;25309;48.686;9.170;2023-02-18T07:51:42;1.83;;;1.40;;
39620;SDS011;25309;48.686;9.170;2023-02-18T07:54:13;2.67;;;1.40;;
39620;SDS011;25309;48.686;9.170;2023-02-18T07:56:41;1.63;;;1.30;;
39620;SDS011;25309;48.686;9.170;2023-02-18T07:59:08;1.87;;;1.50;;
39620;SDS011;25309;48.686;9.170;2023-02-18T08:01:36;1.60;;;1.20;;
39620;SDS011;25309;48.686;9.170;2023-02-18T08:04:03;2.17;;;1.50;;
39620;SDS011;25309;48.686;9.170;2023-02-18T08:06:31;1.50;;;1.30;;
39620;SDS011;25309;48.686;9.170;2023-02-18T08:08:59;2.00;;;1.50;;
39620;SDS011;25309;48.686;9.170;2023-02-18T08:11:28;2.27;;;1.60;;
39620;SDS011;25309;48.686;9.170;2023-02-18T08:13:55;1.50;;;1.37;;
39620;SDS011;25309;48.686;9.170;2023-02-18T08:16:22;3.17;;;1.47;;
39620;SDS011;25309;48.686;9.170;2023-02-18T08:18:50;1.53;;;1.30;;
39620;SDS011;25309;48.686;9.170;2023-02-18T08:21:18;2.20;;;1.40;;
39620;SDS011;25309;48.686;9.170;2023-02-18T08:23:47;2.20;;;1.40;;
39620;SDS011;25309;48.686;9.170;2023-02-18T08:26:15;1.73;;;1.27;;
39620;SDS011;25309;48.686;9.170;2023-02-18T08:28:43;1.20;;;1.00;;
39620;SDS011;25309;48.686;9.170;2023-02-18T08:31:15;1.30;;;1.20;;
39620;SDS011;25309;48.686;9.170;2023-02-18T08:33:43;2.17;;;1.37;;
39620;SDS011;25309;48.686;9.170;2023-02-18T08:36:10;2.13;;;1.23;;
39620;SDS011;25309;48.686;9.170;2023-02-18T08:38:37;2.13;;;1.23;;
39620;SDS011;25309;48.686;9.170;2023-02-18T08:41:05;1.40;;;1.00;;
39620;SDS011;25309;48.686;9.170;2023-02-18T08:43:33;1.63;;;1.30;;
39620;SDS011;25309;48.686;9.170;2023-02-18T08:46:02;1.47;;;1.20;;
39620;SDS011;25309;48.686;9.170;2023-02-18T08:48:29;1.67;;;1.10;;
39620;SDS011;25309;48.686;9.170;2023-02-18T08:50:56;2.37;;;1.10;;
39620;SDS011;25309;48.686;9.170;2023-02-18T08:53:24;2.00;;;1.20;;
39620;SDS011;25309;48.686;9.170;2023-02-18T08:55:51;2.60;;;1.40;;
39620;SDS011;25309;48.686;9.170;2023-02-18T08:58:18;1.53;;;1.00;;
39620;SDS011;25309;48.686;9.170;2023-02-18T09:00:45;1.23;;;1.13;;
39620;SDS011;25309;48.686;9.170;2023-02-18T09:03:14;1.87;;;1.30;;
39620;SDS011;25309;48.686;9.170;2023-02-18T09:05:41;1.30;;;1.07;;
39620;SDS011;25309;48.686;9.170;2023-02-18T09:08:08;1.23;;;1.00;;
39620;SDS011;25309;48.686;9.170;2023-02-18T09:10:34;1.47;;;1.10;;
39620;SDS011;25309;48.686;9.170;2023-02-18T09:13:01;1.93;;;1.20;;
39620;SDS011;25309;48.686;9.170;2023-02-18T09:15:29;1.23;;;1.00;;
39620;SDS011;25309;48.686;9.170;2023-02-18T09:17:57;1.17;;;1.07;;
39620;SDS011;25309;48.686;9.170;2023-02-18T09:20:26;1.13;;;1.00;;
39620;SDS011;25309;48.686;9.170;2023-02-18T09:22:53;2.23;;;1.17;;
39620;SDS011;25309;48.686;9.170;2023-02-18T09:25:20;1.33;;;1.00;;
39620;SDS011;25309;48.686;9.170;2023-02-18T09:27:47;2.30;;;1.10;;
39620;SDS011;25309;48.686;9.170;2023-02-18T09:30:14;1.07;;;0.97;;
39620;SDS011;25309;48.686;9.170;2023-02-18T09:32:41;1.23;;;1.07;;
39620;SDS011;25309;48.686;9.170;2023-02-18T09:35:08;1.20;;;1.10;;
39620;SDS011;25309;48.686;9.170;2023-02-18T09:37:37;1.03;;;0.90;;
39620;SDS011;25309;48.686;9.170;2023-02-18T09:40:05;1.23;;;0.97;;
39620;SDS011;25309;48.686;9.170;2023-02-18T09:42:33;1.47;;;1.10;;
39620;SDS011;25309;48.686;9.170;2023-02-18T09:45:02;1.37;;;1.00;;
39620;SDS011;25309;48.686;9.170;2023-02-18T09:47:30;2.30;;;1.00;;
39620;SDS011;25309;48.686;9.170;2023-02-18T09:50:03;1.20;;;0.90;;
39620;SDS011;25309;48.686;9.170;2023-02-18T09:52:33;1.43;;;0.83;;
39620;SDS011;25309;48.686;9.170;2023-02-18T09:55:14;1.00;;;0.87;;
39620;SDS011;25309;48.686;9.170;2023-02-18T09:57:45;1.00;;;0.90;;
39620;SDS011;25309;48.686;9.170;2023-02-18T10:00:16;1.30;;;1.00;;
39620;SDS011;25309;48.686;9.170;2023-02-18T10:02:49;1.90;;;1.00;;
39620;SDS011;25309;48.686;9.170;2023-02-18T10:05:20;2.77;;;1.53;;
39620;SDS011;25309;48.686;9.170;2023-02-18T10:07:48;1.20;;;1.10;;
39620;SDS011;25309;48.686;9.170;2023-02-18T10:10:20;1.37;;;1.00;;
39620;SDS011;25309;48.686;9.170;2023-02-18T10:12:50;1.00;;;0.80;;
39620;SDS011;25309;48.686;9.170;2023-02-18T10:15:20;2.10;;;1.33;;
39620;SDS011;25309;48.686;9.170;2023-02-18T10:17:49;2.77;;;1.70;;
39620;SDS011;25309;48.686;9.170;2023-02-18T10:20:19;2.27;;;1.60;;
39620;SDS011;25309;48.686;9.170;2023-02-18T10:22:50;2.20;;;1.50;;
39620;SDS011;25309;48.686;9.170;2023-02-18T10:25:21;2.57;;;1.73;;
39620;SDS011;25309;48.686;9.170;2023-02-18T10:27:51;1.53;;;1.20;;
39620;SDS011;25309;48.686;9.170;2023-02-18T10:30:20;1.50;;;1.17;;
39620;SDS011;25309;48.686;9.170;2023-02-18T10:32:51;2.90;;;1.10;;
39620;SDS011;25309;48.686;9.170;2023-02-18T10:35:27;2.13;;;1.57;;
39620;SDS011;25309;48.686;9.170;2023-02-18T10:38:04;1.30;;;1.10;;
39620;SDS011;25309;48.686;9.170;2023-02-18T10:40:46;1.63;;;1.00;;
39620;SDS011;25309;48.686;9.170;2023-02-18T10:43:27;1.33;;;1.03;;
39620;SDS011;25309;48.686;9.170;2023-02-18T10:46:05;1.27;;;1.00;;
39620;SDS011;25309;48.686;9.170;2023-02-18T10:48:46;1.30;;;1.03;;
39620;SDS011;25309;48.686;9.170;2023-02-18T10:51:22;1.40;;;1.10;;
39620;SDS011;25309;48.686;9.170;2023-02-18T10:53:54;2.13;;;1.07;;
39620;SDS011;25309;48.686;9.170;2023-02-18T10:56:32;2.03;;;1.00;;
39620;SDS011;25309;48.686;9.170;2023-02-18T10:59:17;1.20;;;0.97;;
39620;SDS011;25309;48.686;9.170;2023-02-18T11:01:46;1.90;;;0.90;;
39620;SDS011;25309;48.686;9.170;2023-02-18T11:04:22;1.23;;;0.80;;
39620;SDS011;25309;48.686;9.170;2023-02-18T11:06:52;1.97;;;0.87;;
39620;SDS011;25309;48.686;9.170;2023-02-18T11:09:24;1.50;;;0.87;;
39620;SDS011;25309;48.686;9.170;2023-02-18T11:11:59;1.00;;;0.80;;
39620;SDS011;25309;48.686;9.170;2023-02-18T11:14:41;1.27;;;1.00;;
39620;SDS011;25309;48.686;9.170;2023-02-18T11:17:14;1.00;;;0.80;;
39620;SDS011;25309;48.686;9.170;2023-02-18T11:19:45;1.00;;;0.90;;
39620;SDS011;25309;48.686;9.170;2023-02-18T11:22:20;2.00;;;0.90;;
39620;SDS011;25309;48.686;9.170;2023-02-18T11:24:52;2.13;;;0.90;;
39620;SDS011;25309;48.686;9.170;2023-02-18T11:27:23;0.77;;;0.73;;
39620;SDS011;25309;48.686;9.170;2023-02-18T11:29:55;1.07;;;0.80;;
39620;SDS011;25309;48.686;9.170;2023-02-18T11:32:26;1.27;;;0.83;;
39620;SDS011;25309;48.686;9.170;2023-02-18T11:34:54;1.80;;;1.00;;
39620;SDS011;25309;48.686;9.170;2023-02-18T11:37:21;1.17;;;0.83;;
39620;SDS011;25309;48.686;9.170;2023-02-18T11:39:49;0.97;;;0.80;;
39620;SDS011;25309;48.686;9.170;2023-02-18T11:42:18;0.73;;;0.70;;
39620;SDS011;25309;48.686;9.170;2023-02-18T11:44:50;0.60;;;0.60;;
39620;SDS011;25309;48.686;9.170;2023-02-18T11:47:20;1.03;;;0.83;;
39620;SDS011;25309;48.686;9.170;2023-02-18T11:50:00;1.30;;;0.83;;
39620;SDS011;25309;48.686;9.170;2023-02-18T11:52:40;1.23;;;0.80;;
39620;SDS011;25309;48.686;9.170;2023-02-18T11:55:13;1.67;;;0.70;;
39620;SDS011;25309;48.686;9.170;2023-02-18T11:57:42;2.50;;;0.73;;
39620;SDS011;25309;48.686;9.170;2023-02-18T12:02:47;0.80;;;0.80;;
39620;SDS011;25309;48.686;9.170;2023-02-18T12:05:15;1.70;;;0.87;;
39620;SDS011;25309;48.686;9.170;2023-02-18T12:07:47;1.23;;;0.77;;
39620;SDS011;25309;48.686;9.170;2023-02-18T12:10:21;1.50;;;0.80;;
39620;SDS011;25309;48.686;9.170;2023-02-18T12:12:54;1.07;;;0.63;;
39620;SDS011;25309;48.686;9.170;2023-02-18T12:15:31;1.80;;;1.27;;
39620;SDS011;25309;48.686;9.170;2023-02-18T12:21:21;1.77;;;1.10;;
39620;SDS011;25309;48.686;9.170;2023-02-18T12:24:07;1.00;;;0.90;;
39620;SDS011;25309;48.686;9.170;2023-02-18T12:26:44;1.37;;;0.87;;
39620;SDS011;25309;48.686;9.170;2023-02-18T12:29:26;1.20;;;0.90;;
39620;SDS011;25309;48.686;9.170;2023-02-18T12:32:20;0.97;;;0.90;;
39620;SDS011;25309;48.686;9.170;2023-02-18T12:35:00;1.27;;;1.03;;
39620;SDS011;25309;48.686;9.170;2023-02-18T12:37:52;1.83;;;1.10;;
39620;SDS011;25309;48.686;9.170;2023-02-18T12:43:19;1.80;;;1.30;;
39620;SDS011;25309;48.686;9.170;2023-02-18T12:46:18;1.73;;;1.30;;
39620;SDS011;25309;48.686;9.170;2023-02-18T12:48:54;1.47;;;1.03;;
39620;SDS011;25309;48.686;9.170;2023-02-18T12:51:31;1.63;;;1.00;;
39620;SDS011;25309;48.686;9.170;2023-02-18T12:54:17;1.90;;;1.30;;
39620;SDS011;25309;48.686;9.170;2023-02-18T12:57:02;1.60;;;1.07;;
39620;SDS011;25309;48.686;9.170;2023-02-18T12:59:59;1.70;;;1.20;;
39620;SDS011;25309;48.686;9.170;2023-02-18T13:06:07;1.57;;;1.30;;
39620;SDS011;25309;48.686;9.170;2023-02-18T13:08:47;1.77;;;1.30;;
39620;SDS011;25309;48.686;9.170;2023-02-18T13:11:24;2.63;;;1.20;;
39620;SDS011;25309;48.686;9.170;2023-02-18T13:13:59;2.73;;;1.30;;
39620;SDS011;25309;48.686;9.170;2023-02-18T13:16:30;2.00;;;1.30;;
39620;SDS011;25309;48.686;9.170;2023-02-18T13:18:59;1.30;;;1.10;;
39620;SDS011;25309;48.686;9.170;2023-02-18T13:21:34;2.37;;;1.40;;
39620;SDS011;25309;48.686;9.170;2023-02-18T13:24:05;1.77;;;1.30;;
39620;SDS011;25309;48.686;9.170;2023-02-18T13:26:36;1.33;;;1.20;;
39620;SDS011;25309;48.686;9.170;2023-02-18T13:29:08;1.90;;;1.20;;
39620;SDS011;25309;48.686;9.170;2023-02-18T13:31:46;1.53;;;1.20;;
39620;SDS011;25309;48.686;9.170;2023-02-18T13:34:26;2.70;;;1.50;;
39620;SDS011;25309;48.686;9.170;2023-02-18T13:37:02;1.37;;;1.20;;
39620;SDS011;25309;48.686;9.170;2023-02-18T13:39:35;3.10;;;1.47;;
39620;SDS011;25309;48.686;9.170;2023-02-18T13:45:02;2.27;;;1.43;;
39620;SDS011;25309;48.686;9.170;2023-02-18T13:47:37;1.63;;;1.27;;
39620;SDS011;25309;48.686;9.170;2023-02-18T13:50:23;2.47;;;1.50;;
39620;SDS011;25309;48.686;9.170;2023-02-18T13:53:19;2.60;;;1.30;;
39620;SDS011;25309;48.686;9.170;2023-02-18T13:55:59;2.60;;;1.50;;
39620;SDS011;25309;48.686;9.170;2023-02-18T13:58:30;3.17;;;1.30;;
39620;SDS011;25309;48.686;9.170;2023-02-18T14:01:03;1.93;;;1.40;;
39620;SDS011;25309;48.686;9.170;2023-02-18T14:03:34;2.83;;;1.50;;
39620;SDS011;25309;48.686;9.170;2023-02-18T14:06:16;1.63;;;1.30;;
39620;SDS011;25309;48.686;9.170;2023-02-18T14:08:46;2.77;;;1.40;;
39620;SDS011;25309;48.686;9.170;2023-02-18T14:11:29;2.10;;;1.50;;
39620;SDS011;25309;48.686;9.170;2023-02-18T14:14:30;1.53;;;1.30;;
39620;SDS011;25309;48.686;9.170;2023-02-18T14:26:16;1.73;;;1.30;;
39620;SDS011;25309;48.686;9.170;2023-02-18T14:28:52;2.17;;;1.30;;
39620;SDS011;25309;48.686;9.170;2023-02-18T14:31:26;2.90;;;1.50;;
39620;SDS011;25309;48.686;9.170;2023-02-18T14:40:24;2.00;;;1.27;;
39620;SDS011;25309;48.686;9.170;2023-02-18T14:43:11;2.40;;;1.30;;
39620;SDS011;25309;48.686;9.170;2023-02-18T14:51:34;2.07;;;1.57;;
39620;SDS011;25309;48.686;9.170;2023-02-18T14:54:02;2.40;;;1.57;;
39620;SDS011;25309;48.686;9.170;2023-02-18T14:56:31;2.57;;;1.53;;
39620;SDS011;25309;48.686;9.170;2023-02-18T14:59:04;1.50;;;1.30;;
39620;SDS011;25309;48.686;9.170;2023-02-18T15:01:32;2.70;;;1.67;;
39620;SDS011;25309;48.686;9.170;2023-02-18T15:04:01;1.90;;;1.47;;
39620;SDS011;25309;48.686;9.170;2023-02-18T15:06:29;1.77;;;1.47;;
39620;SDS011;25309;48.686;9.170;2023-02-18T15:08:59;2.60;;;1.50;;
39620;SDS011;25309;48.686;9.170;2023-02-18T15:11:30;2.17;;;1.50;;
39620;SDS011;25309;48.686;9.170;2023-02-18T15:14:03;1.93;;;1.57;;
39620;SDS011;25309;48.686;9.170;2023-02-18T15:16:36;2.43;;;1.50;;
39620;SDS011;25309;48.686;9.170;2023-02-18T15:19:04;2.07;;;1.37;;
39620;SDS011;25309;48.686;9.170;2023-02-18T15:21:34;1.70;;;1.20;;
39620;SDS011;25309;48.686;9.170;2023-02-18T15:24:05;1.80;;;1.20;;
39620;SDS011;25309;48.686;9.170;2023-02-18T15:26:33;1.27;;;1.10;;
39620;SDS011;25309;48.686;9.170;2023-02-18T15:29:04;2.73;;;1.30;;
39620;SDS011;25309;48.686;9.170;2023-02-18T15:31:35;1.77;;;1.40;;
39620;SDS011;25309;48.686;9.170;2023-02-18T15:34:08;1.17;;;1.07;;
39620;SDS011;25309;48.686;9.170;2023-02-18T15:37:03;3.90;;;1.40;;
39620;SDS011;25309;48.686;9.170;2023-02-18T15:39:31;1.53;;;1.10;;
39620;SDS011;25309;48.686;9.170;2023-02-18T15:42:00;1.63;;;1.20;;
39620;SDS011;25309;48.686;9.170;2023-02-18T15:44:33;2.17;;;1.30;;
39620;SDS011;25309;48.686;9.170;2023-02-18T15:47:02;1.47;;;1.20;;
39620;SDS011;25309;48.686;9.170;2023-02-18T15:49:32;1.77;;;1.30;;
39620;SDS011;25309;48.686;9.170;2023-02-18T15:52:02;2.00;;;1.40;;
39620;SDS011;25309;48.686;9.170;2023-02-18T15:54:30;1.73;;;1.27;;